sensor_id;sensor_type;location;lat;lon;timestamp;temperature;humidity
66608;DHT22;53462;39.616;8.824;2023-05-09T00:02:06;14.00;99.90
66608;DHT22;53462;39.616;8.824;2023-05-09T00:04:32;14.00;99.90
66608;DHT22;53462;39.616;8.824;2023-05-09T00:07:00;13.90;99.90
66608;DHT22;53462;39.616;8.824;2023-05-09T00:09:26;13.80;99.90
66608;DHT22;53462;39.616;8.824;2023-05-09T00:11:52;13.80;99.90
66608;DHT22;53462;39.616;8.824;2023-05-09T00:14:17;13.70;99.90
66608;DHT22;53462;39.616;8.824;2023-05-09T00:16:44;13.80;99.90
66608;DHT22;53462;39.616;8.824;2023-05-09T00:19:10;13.70;99.90
66608;DHT22;53462;39.616;8.824;2023-05-09T00:21:37;13.70;99.90
66608;DHT22;53462;39.616;8.824;2023-05-09T00:24:04;13.70;99.90
66608;DHT22;53462;39.616;8.824;2023-05-09T00:26:30;13.60;99.90
66608;DHT22;53462;39.616;8.824;2023-05-09T00:28:56;13.50;99.90
66608;DHT22;53462;39.616;8.824;2023-05-09T00:31:22;13.60;99.90
66608;DHT22;53462;39.616;8.824;2023-05-09T00:33:48;13.60;99.90
66608;DHT22;53462;39.616;8.824;2023-05-09T00:36:14;13.50;99.90
66608;DHT22;53462;39.616;8.824;2023-05-09T00:38:40;13.50;99.90
66608;DHT22;53462;39.616;8.824;2023-05-09T00:41:06;13.50;99.90
66608;DHT22;53462;39.616;8.824;2023-05-09T00:43:32;13.50;99.90
66608;DHT22;53462;39.616;8.824;2023-05-09T00:45:58;13.40;99.90
66608;DHT22;53462;39.616;8.824;2023-05-09T00:48:24;13.40;99.90
66608;DHT22;53462;39.616;8.824;2023-05-09T00:50:50;13.30;99.90
66608;DHT22;53462;39.616;8.824;2023-05-09T00:53:18;13.30;99.90
66608;DHT22;53462;39.616;8.824;2023-05-09T00:55:45;13.20;99.90
66608;DHT22;53462;39.616;8.824;2023-05-09T00:58:12;13.30;99.90
66608;DHT22;53462;39.616;8.824;2023-05-09T01:00:38;13.20;99.90
66608;DHT22;53462;39.616;8.824;2023-05-09T01:03:04;13.20;99.90
66608;DHT22;53462;39.616;8.824;2023-05-09T01:05:42;13.20;99.90
66608;DHT22;53462;39.616;8.824;2023-05-09T01:08:14;13.20;99.90
66608;DHT22;53462;39.616;8.824;2023-05-09T01:10:57;13.20;99.90
66608;DHT22;53462;39.616;8.824;2023-05-09T01:13:40;13.20;99.90
66608;DHT22;53462;39.616;8.824;2023-05-09T01:16:25;13.10;99.90
66608;DHT22;53462;39.616;8.824;2023-05-09T01:19:07;13.00;99.90
66608;DHT22;53462;39.616;8.824;2023-05-09T01:21:37;12.90;99.90
66608;DHT22;53462;39.616;8.824;2023-05-09T01:29:46;12.90;99.90
66608;DHT22;53462;39.616;8.824;2023-05-09T01:32:16;12.90;99.90
66608;DHT22;53462;39.616;8.824;2023-05-09T01:34:45;13.00;99.90
66608;DHT22;53462;39.616;8.824;2023-05-09T01:37:13;12.90;99.90
66608;DHT22;53462;39.616;8.824;2023-05-09T01:39:43;12.90;99.90
66608;DHT22;53462;39.616;8.824;2023-05-09T01:42:12;12.80;99.90
66608;DHT22;53462;39.616;8.824;2023-05-09T01:44:42;12.70;99.90
66608;DHT22;53462;39.616;8.824;2023-05-09T01:47:08;12.70;99.90
66608;DHT22;53462;39.616;8.824;2023-05-09T01:49:36;12.60;99.90
66608;DHT22;53462;39.616;8.824;2023-05-09T01:52:06;12.60;99.90
66608;DHT22;53462;39.616;8.824;2023-05-09T01:54:33;12.60;99.90
66608;DHT22;53462;39.616;8.824;2023-05-09T01:57:02;12.60;99.90
66608;DHT22;53462;39.616;8.824;2023-05-09T01:59:30;12.50;99.90
66608;DHT22;53462;39.616;8.824;2023-05-09T02:01:57;12.50;99.90
66608;DHT22;53462;39.616;8.824;2023-05-09T02:04:26;12.50;99.90
66608;DHT22;53462;39.616;8.824;2023-05-09T02:06:53;12.60;99.90
66608;DHT22;53462;39.616;8.824;2023-05-09T02:09:20;12.60;99.90
66608;DHT22;53462;39.616;8.824;2023-05-09T02:11:46;12.70;99.90
66608;DHT22;53462;39.616;8.824;2023-05-09T02:14:13;12.70;99.90
66608;DHT22;53462;39.616;8.824;2023-05-09T02:16:39;12.70;99.90
66608;DHT22;53462;39.616;8.824;2023-05-09T02:19:05;12.60;99.90
66608;DHT22;53462;39.616;8.824;2023-05-09T02:21:31;12.50;99.90
66608;DHT22;53462;39.616;8.824;2023-05-09T02:23:57;12.40;99.90
66608;DHT22;53462;39.616;8.824;2023-05-09T02:26:27;12.50;99.90
66608;DHT22;53462;39.616;8.824;2023-05-09T02:28:54;12.50;99.90
66608;DHT22;53462;39.616;8.824;2023-05-09T02:31:23;12.50;99.90
66608;DHT22;53462;39.616;8.824;2023-05-09T02:33:51;12.60;99.90
66608;DHT22;53462;39.616;8.824;2023-05-09T02:36:18;12.50;99.90
66608;DHT22;53462;39.616;8.824;2023-05-09T02:38:45;12.60;99.90
66608;DHT22;53462;39.616;8.824;2023-05-09T02:41:14;12.60;99.90
66608;DHT22;53462;39.616;8.824;2023-05-09T02:43:40;12.50;99.90
66608;DHT22;53462;39.616;8.824;2023-05-09T02:46:07;12.50;99.90
66608;DHT22;53462;39.616;8.824;2023-05-09T02:48:34;12.60;99.90
66608;DHT22;53462;39.616;8.824;2023-05-09T02:51:00;12.60;99.90
66608;DHT22;53462;39.616;8.824;2023-05-09T02:53:26;12.50;99.90
66608;DHT22;53462;39.616;8.824;2023-05-09T02:55:53;12.60;99.90
66608;DHT22;53462;39.616;8.824;2023-05-09T02:58:19;12.50;99.90
66608;DHT22;53462;39.616;8.824;2023-05-09T03:00:45;12.60;99.90
66608;DHT22;53462;39.616;8.824;2023-05-09T03:03:13;12.60;99.90
66608;DHT22;53462;39.616;8.824;2023-05-09T03:05:40;12.60;99.90
66608;DHT22;53462;39.616;8.824;2023-05-09T03:08:07;12.50;99.90
66608;DHT22;53462;39.616;8.824;2023-05-09T03:10:33;12.50;99.90
66608;DHT22;53462;39.616;8.824;2023-05-09T03:12:59;12.50;99.90
66608;DHT22;53462;39.616;8.824;2023-05-09T03:15:26;12.40;99.90
66608;DHT22;53462;39.616;8.824;2023-05-09T03:17:52;12.30;99.90
66608;DHT22;53462;39.616;8.824;2023-05-09T03:20:21;12.30;99.90
66608;DHT22;53462;39.616;8.824;2023-05-09T03:22:46;12.30;99.90
66608;DHT22;53462;39.616;8.824;2023-05-09T03:25:13;12.30;99.90
66608;DHT22;53462;39.616;8.824;2023-05-09T03:27:40;12.40;99.90
66608;DHT22;53462;39.616;8.824;2023-05-09T03:30:10;12.40;99.90
66608;DHT22;53462;39.616;8.824;2023-05-09T03:32:36;12.40;99.90
66608;DHT22;53462;39.616;8.824;2023-05-09T03:35:03;12.30;99.90
66608;DHT22;53462;39.616;8.824;2023-05-09T03:37:31;12.30;99.90
66608;DHT22;53462;39.616;8.824;2023-05-09T03:39:57;12.20;99.90
66608;DHT22;53462;39.616;8.824;2023-05-09T03:42:23;12.30;99.90
66608;DHT22;53462;39.616;8.824;2023-05-09T03:44:52;12.30;99.90
66608;DHT22;53462;39.616;8.824;2023-05-09T03:47:20;12.30;99.90
66608;DHT22;53462;39.616;8.824;2023-05-09T03:49:46;12.20;99.90
66608;DHT22;53462;39.616;8.824;2023-05-09T03:52:15;12.10;99.90
66608;DHT22;53462;39.616;8.824;2023-05-09T03:54:42;12.10;99.90
66608;DHT22;53462;39.616;8.824;2023-05-09T03:57:08;12.20;99.90
66608;DHT22;53462;39.616;8.824;2023-05-09T03:59:34;12.20;99.90
66608;DHT22;53462;39.616;8.824;2023-05-09T04:02:00;12.20;99.90
66608;DHT22;53462;39.616;8.824;2023-05-09T04:04:26;12.30;99.90
66608;DHT22;53462;39.616;8.824;2023-05-09T04:06:52;12.30;99.90
66608;DHT22;53462;39.616;8.824;2023-05-09T04:09:18;12.30;99.90
66608;DHT22;53462;39.616;8.824;2023-05-09T04:11:46;12.30;99.90
66608;DHT22;53462;39.616;8.824;2023-05-09T04:14:12;12.40;99.90
66608;DHT22;53462;39.616;8.824;2023-05-09T04:16:39;12.20;99.90
66608;DHT22;53462;39.616;8.824;2023-05-09T04:19:05;12.10;99.90
66608;DHT22;53462;39.616;8.824;2023-05-09T04:21:32;12.10;99.90
66608;DHT22;53462;39.616;8.824;2023-05-09T04:24:00;12.20;99.90
66608;DHT22;53462;39.616;8.824;2023-05-09T04:26:36;12.30;99.90
66608;DHT22;53462;39.616;8.824;2023-05-09T04:29:06;12.30;99.90
66608;DHT22;53462;39.616;8.824;2023-05-09T04:31:32;12.40;99.90
66608;DHT22;53462;39.616;8.824;2023-05-09T04:33:59;12.40;99.90
66608;DHT22;53462;39.616;8.824;2023-05-09T04:36:27;12.30;99.90
66608;DHT22;53462;39.616;8.824;2023-05-09T04:38:56;12.30;99.90
66608;DHT22;53462;39.616;8.824;2023-05-09T04:41:24;12.30;99.90
66608;DHT22;53462;39.616;8.824;2023-05-09T04:43:50;12.50;99.90
66608;DHT22;53462;39.616;8.824;2023-05-09T04:46:17;12.60;99.90
66608;DHT22;53462;39.616;8.824;2023-05-09T04:48:43;12.50;99.90
66608;DHT22;53462;39.616;8.824;2023-05-09T04:51:09;12.20;99.90
66608;DHT22;53462;39.616;8.824;2023-05-09T04:53:35;12.20;99.90
66608;DHT22;53462;39.616;8.824;2023-05-09T04:56:02;12.20;99.90
66608;DHT22;53462;39.616;8.824;2023-05-09T04:58:29;12.20;99.90
66608;DHT22;53462;39.616;8.824;2023-05-09T05:00:56;12.20;99.90
66608;DHT22;53462;39.616;8.824;2023-05-09T05:03:22;12.20;99.90
66608;DHT22;53462;39.616;8.824;2023-05-09T05:05:47;12.40;99.90
66608;DHT22;53462;39.616;8.824;2023-05-09T05:08:14;12.50;99.90
66608;DHT22;53462;39.616;8.824;2023-05-09T05:10:41;12.50;99.90
66608;DHT22;53462;39.616;8.824;2023-05-09T05:13:10;12.70;99.90
66608;DHT22;53462;39.616;8.824;2023-05-09T05:15:40;12.80;99.90
66608;DHT22;53462;39.616;8.824;2023-05-09T05:18:08;12.90;99.90
66608;DHT22;53462;39.616;8.824;2023-05-09T05:20:34;13.00;99.90
66608;DHT22;53462;39.616;8.824;2023-05-09T05:23:00;13.20;99.90
66608;DHT22;53462;39.616;8.824;2023-05-09T05:25:26;13.20;99.90
66608;DHT22;53462;39.616;8.824;2023-05-09T05:27:54;13.40;99.90
66608;DHT22;53462;39.616;8.824;2023-05-09T05:30:20;13.70;99.90
66608;DHT22;53462;39.616;8.824;2023-05-09T05:32:46;13.80;99.90
66608;DHT22;53462;39.616;8.824;2023-05-09T05:35:15;14.00;99.90
66608;DHT22;53462;39.616;8.824;2023-05-09T05:37:42;14.10;99.90
66608;DHT22;53462;39.616;8.824;2023-05-09T05:40:09;14.20;99.90
66608;DHT22;53462;39.616;8.824;2023-05-09T05:42:38;14.30;99.90
66608;DHT22;53462;39.616;8.824;2023-05-09T05:45:04;14.40;99.90
66608;DHT22;53462;39.616;8.824;2023-05-09T05:47:35;14.60;99.90
66608;DHT22;53462;39.616;8.824;2023-05-09T05:50:02;14.80;99.90
66608;DHT22;53462;39.616;8.824;2023-05-09T05:52:29;15.00;99.90
66608;DHT22;53462;39.616;8.824;2023-05-09T05:54:56;15.30;99.90
66608;DHT22;53462;39.616;8.824;2023-05-09T05:57:23;15.50;99.90
66608;DHT22;53462;39.616;8.824;2023-05-09T05:59:50;15.70;99.90
66608;DHT22;53462;39.616;8.824;2023-05-09T06:02:17;15.90;99.90
66608;DHT22;53462;39.616;8.824;2023-05-09T06:04:44;16.20;99.90
66608;DHT22;53462;39.616;8.824;2023-05-09T06:07:10;17.00;99.90
66608;DHT22;53462;39.616;8.824;2023-05-09T06:09:37;17.10;99.90
66608;DHT22;53462;39.616;8.824;2023-05-09T06:12:03;17.00;99.90
66608;DHT22;53462;39.616;8.824;2023-05-09T06:14:29;17.80;99.90
66608;DHT22;53462;39.616;8.824;2023-05-09T06:16:56;18.30;99.90
66608;DHT22;53462;39.616;8.824;2023-05-09T06:19:23;18.20;99.90
66608;DHT22;53462;39.616;8.824;2023-05-09T06:21:49;17.60;99.90
66608;DHT22;53462;39.616;8.824;2023-05-09T06:24:15;17.60;99.90
66608;DHT22;53462;39.616;8.824;2023-05-09T06:26:40;18.10;99.90
66608;DHT22;53462;39.616;8.824;2023-05-09T06:29:06;18.40;99.90
66608;DHT22;53462;39.616;8.824;2023-05-09T06:31:33;18.80;99.90
66608;DHT22;53462;39.616;8.824;2023-05-09T06:34:03;19.20;99.90
66608;DHT22;53462;39.616;8.824;2023-05-09T06:36:29;19.60;99.80
66608;DHT22;53462;39.616;8.824;2023-05-09T06:38:57;20.10;97.60
66608;DHT22;53462;39.616;8.824;2023-05-09T06:41:23;20.20;95.20
66608;DHT22;53462;39.616;8.824;2023-05-09T06:43:49;20.30;94.20
66608;DHT22;53462;39.616;8.824;2023-05-09T06:46:15;20.50;94.10
66608;DHT22;53462;39.616;8.824;2023-05-09T06:48:41;20.70;92.80
66608;DHT22;53462;39.616;8.824;2023-05-09T06:51:06;20.90;91.70
66608;DHT22;53462;39.616;8.824;2023-05-09T06:53:32;21.00;92.20
66608;DHT22;53462;39.616;8.824;2023-05-09T06:55:59;20.80;92.70
66608;DHT22;53462;39.616;8.824;2023-05-09T06:58:25;20.60;93.00
66608;DHT22;53462;39.616;8.824;2023-05-09T07:00:52;20.30;93.70
66608;DHT22;53462;39.616;8.824;2023-05-09T07:03:18;20.20;94.00
66608;DHT22;53462;39.616;8.824;2023-05-09T07:05:44;20.00;96.40
66608;DHT22;53462;39.616;8.824;2023-05-09T07:08:10;20.00;97.60
66608;DHT22;53462;39.616;8.824;2023-05-09T07:10:36;20.20;97.30
66608;DHT22;53462;39.616;8.824;2023-05-09T07:13:03;20.40;97.60
66608;DHT22;53462;39.616;8.824;2023-05-09T07:15:29;20.70;94.40
66608;DHT22;53462;39.616;8.824;2023-05-09T07:17:55;20.70;92.90
66608;DHT22;53462;39.616;8.824;2023-05-09T07:20:21;20.80;93.40
66608;DHT22;53462;39.616;8.824;2023-05-09T07:22:47;20.90;93.70
66608;DHT22;53462;39.616;8.824;2023-05-09T07:25:13;21.50;91.30
66608;DHT22;53462;39.616;8.824;2023-05-09T07:27:39;21.80;88.70
66608;DHT22;53462;39.616;8.824;2023-05-09T07:30:05;21.80;87.30
66608;DHT22;53462;39.616;8.824;2023-05-09T07:32:32;22.20;87.10
66608;DHT22;53462;39.616;8.824;2023-05-09T07:34:58;21.90;88.50
66608;DHT22;53462;39.616;8.824;2023-05-09T07:37:24;22.00;88.20
66608;DHT22;53462;39.616;8.824;2023-05-09T07:39:50;21.90;87.80
66608;DHT22;53462;39.616;8.824;2023-05-09T07:42:22;22.20;86.40
66608;DHT22;53462;39.616;8.824;2023-05-09T07:44:48;22.20;88.00
66608;DHT22;53462;39.616;8.824;2023-05-09T07:47:14;22.30;85.60
66608;DHT22;53462;39.616;8.824;2023-05-09T07:49:40;22.30;83.00
66608;DHT22;53462;39.616;8.824;2023-05-09T07:52:08;22.50;83.80
66608;DHT22;53462;39.616;8.824;2023-05-09T07:54:34;22.90;81.50
66608;DHT22;53462;39.616;8.824;2023-05-09T07:56:59;22.90;80.60
66608;DHT22;53462;39.616;8.824;2023-05-09T07:59:25;23.10;80.80
66608;DHT22;53462;39.616;8.824;2023-05-09T08:01:51;23.50;76.50
66608;DHT22;53462;39.616;8.824;2023-05-09T08:04:17;23.60;75.40
66608;DHT22;53462;39.616;8.824;2023-05-09T08:06:43;23.60;75.80
66608;DHT22;53462;39.616;8.824;2023-05-09T08:09:09;23.80;73.00
66608;DHT22;53462;39.616;8.824;2023-05-09T08:11:35;23.90;74.10
66608;DHT22;53462;39.616;8.824;2023-05-09T08:14:01;24.10;74.40
66608;DHT22;53462;39.616;8.824;2023-05-09T08:16:27;23.60;71.40
66608;DHT22;53462;39.616;8.824;2023-05-09T08:18:53;23.50;67.10
66608;DHT22;53462;39.616;8.824;2023-05-09T08:21:20;24.00;61.70
66608;DHT22;53462;39.616;8.824;2023-05-09T08:23:46;23.80;60.40
66608;DHT22;53462;39.616;8.824;2023-05-09T08:26:12;23.90;61.40
66608;DHT22;53462;39.616;8.824;2023-05-09T08:28:38;24.00;61.00
66608;DHT22;53462;39.616;8.824;2023-05-09T08:31:04;24.10;61.10
66608;DHT22;53462;39.616;8.824;2023-05-09T08:33:30;24.60;62.40
66608;DHT22;53462;39.616;8.824;2023-05-09T08:35:56;24.60;64.00
66608;DHT22;53462;39.616;8.824;2023-05-09T08:38:22;24.30;62.70
66608;DHT22;53462;39.616;8.824;2023-05-09T08:40:48;24.60;60.10
66608;DHT22;53462;39.616;8.824;2023-05-09T08:43:15;24.60;60.70
66608;DHT22;53462;39.616;8.824;2023-05-09T08:45:50;24.80;64.00
66608;DHT22;53462;39.616;8.824;2023-05-09T08:48:17;24.70;58.80
66608;DHT22;53462;39.616;8.824;2023-05-09T08:50:43;25.00;58.00
66608;DHT22;53462;39.616;8.824;2023-05-09T08:53:13;24.80;58.70
66608;DHT22;53462;39.616;8.824;2023-05-09T08:55:39;25.00;58.40
66608;DHT22;53462;39.616;8.824;2023-05-09T08:58:05;24.90;57.50
66608;DHT22;53462;39.616;8.824;2023-05-09T09:00:33;25.20;56.30
66608;DHT22;53462;39.616;8.824;2023-05-09T09:03:01;25.10;55.70
66608;DHT22;53462;39.616;8.824;2023-05-09T09:05:30;25.20;57.20
66608;DHT22;53462;39.616;8.824;2023-05-09T09:07:57;25.20;53.70
66608;DHT22;53462;39.616;8.824;2023-05-09T09:10:25;25.40;57.90
66608;DHT22;53462;39.616;8.824;2023-05-09T09:12:55;25.50;54.70
66608;DHT22;53462;39.616;8.824;2023-05-09T09:15:27;25.50;59.90
66608;DHT22;53462;39.616;8.824;2023-05-09T09:17:55;25.40;59.70
66608;DHT22;53462;39.616;8.824;2023-05-09T09:20:25;25.30;59.90
66608;DHT22;53462;39.616;8.824;2023-05-09T09:22:58;25.50;56.50
66608;DHT22;53462;39.616;8.824;2023-05-09T09:25:27;25.60;55.60
66608;DHT22;53462;39.616;8.824;2023-05-09T09:27:53;25.70;56.90
66608;DHT22;53462;39.616;8.824;2023-05-09T09:30:22;26.40;58.00
66608;DHT22;53462;39.616;8.824;2023-05-09T09:32:49;26.90;54.80
66608;DHT22;53462;39.616;8.824;2023-05-09T09:35:16;26.90;51.80
66608;DHT22;53462;39.616;8.824;2023-05-09T09:37:42;26.60;53.50
66608;DHT22;53462;39.616;8.824;2023-05-09T09:40:10;26.50;51.90
66608;DHT22;53462;39.616;8.824;2023-05-09T09:42:46;26.30;52.20
66608;DHT22;53462;39.616;8.824;2023-05-09T09:45:15;26.30;52.90
66608;DHT22;53462;39.616;8.824;2023-05-09T09:47:45;26.10;51.00
66608;DHT22;53462;39.616;8.824;2023-05-09T09:52:49;26.70;50.30
66608;DHT22;53462;39.616;8.824;2023-05-09T09:55:15;26.90;51.80
66608;DHT22;53462;39.616;8.824;2023-05-09T09:57:41;27.10;49.30
66608;DHT22;53462;39.616;8.824;2023-05-09T10:00:11;27.40;49.30
66608;DHT22;53462;39.616;8.824;2023-05-09T10:02:48;27.40;47.90
66608;DHT22;53462;39.616;8.824;2023-05-09T10:05:18;27.40;47.90
66608;DHT22;53462;39.616;8.824;2023-05-09T10:07:45;27.50;48.60
66608;DHT22;53462;39.616;8.824;2023-05-09T10:10:11;27.70;49.50
66608;DHT22;53462;39.616;8.824;2023-05-09T10:12:37;27.90;48.90
66608;DHT22;53462;39.616;8.824;2023-05-09T10:15:06;27.70;45.90
66608;DHT22;53462;39.616;8.824;2023-05-09T10:17:33;27.70;47.20
66608;DHT22;53462;39.616;8.824;2023-05-09T10:20:04;27.70;45.20
66608;DHT22;53462;39.616;8.824;2023-05-09T10:22:32;27.80;47.40
66608;DHT22;53462;39.616;8.824;2023-05-09T10:25:12;27.50;45.10
66608;DHT22;53462;39.616;8.824;2023-05-09T10:27:41;28.10;46.00
66608;DHT22;53462;39.616;8.824;2023-05-09T10:32:46;28.30;45.80
66608;DHT22;53462;39.616;8.824;2023-05-09T10:35:15;28.70;48.90
66608;DHT22;53462;39.616;8.824;2023-05-09T10:37:42;28.70;47.50
66608;DHT22;53462;39.616;8.824;2023-05-09T10:40:10;28.80;47.70
66608;DHT22;53462;39.616;8.824;2023-05-09T10:42:43;28.90;45.00
66608;DHT22;53462;39.616;8.824;2023-05-09T10:45:10;29.00;46.70
66608;DHT22;53462;39.616;8.824;2023-05-09T10:47:41;28.90;45.00
66608;DHT22;53462;39.616;8.824;2023-05-09T10:50:11;29.10;46.20
66608;DHT22;53462;39.616;8.824;2023-05-09T10:55:53;28.70;45.30
66608;DHT22;53462;39.616;8.824;2023-05-09T10:58:30;28.90;45.40
66608;DHT22;53462;39.616;8.824;2023-05-09T11:01:00;28.90;43.80
66608;DHT22;53462;39.616;8.824;2023-05-09T11:03:27;28.80;46.00
66608;DHT22;53462;39.616;8.824;2023-05-09T11:05:57;29.20;46.00
66608;DHT22;53462;39.616;8.824;2023-05-09T11:08:28;29.40;43.30
66608;DHT22;53462;39.616;8.824;2023-05-09T11:10:55;29.30;44.80
66608;DHT22;53462;39.616;8.824;2023-05-09T11:13:29;28.90;46.70
66608;DHT22;53462;39.616;8.824;2023-05-09T11:18:28;27.20;49.40
66608;DHT22;53462;39.616;8.824;2023-05-09T11:20:55;26.60;48.30
66608;DHT22;53462;39.616;8.824;2023-05-09T11:23:25;26.60;49.20
66608;DHT22;53462;39.616;8.824;2023-05-09T11:25:51;26.30;48.70
66608;DHT22;53462;39.616;8.824;2023-05-09T11:28:31;26.50;50.00
66608;DHT22;53462;39.616;8.824;2023-05-09T11:31:14;27.10;47.30
66608;DHT22;53462;39.616;8.824;2023-05-09T11:33:41;27.90;47.00
66608;DHT22;53462;39.616;8.824;2023-05-09T11:36:19;28.50;46.70
66608;DHT22;53462;39.616;8.824;2023-05-09T11:39:05;28.50;46.30
66608;DHT22;53462;39.616;8.824;2023-05-09T11:41:47;28.50;45.30
66608;DHT22;53462;39.616;8.824;2023-05-09T11:44:21;28.60;45.40
66608;DHT22;53462;39.616;8.824;2023-05-09T11:46:49;28.70;45.30
66608;DHT22;53462;39.616;8.824;2023-05-09T11:49:15;28.40;44.70
66608;DHT22;53462;39.616;8.824;2023-05-09T11:51:42;28.50;45.80
66608;DHT22;53462;39.616;8.824;2023-05-09T11:54:08;28.60;45.30
66608;DHT22;53462;39.616;8.824;2023-05-09T11:56:38;28.70;44.80
66608;DHT22;53462;39.616;8.824;2023-05-09T11:59:05;29.00;45.50
66608;DHT22;53462;39.616;8.824;2023-05-09T12:01:31;28.80;43.80
66608;DHT22;53462;39.616;8.824;2023-05-09T12:03:57;28.70;45.30
66608;DHT22;53462;39.616;8.824;2023-05-09T12:06:24;28.90;44.10
66608;DHT22;53462;39.616;8.824;2023-05-09T12:08:51;28.70;44.00
66608;DHT22;53462;39.616;8.824;2023-05-09T12:11:17;28.60;43.60
66608;DHT22;53462;39.616;8.824;2023-05-09T12:13:45;28.90;44.00
66608;DHT22;53462;39.616;8.824;2023-05-09T12:16:11;29.10;43.20
66608;DHT22;53462;39.616;8.824;2023-05-09T12:18:37;29.00;43.70
66608;DHT22;53462;39.616;8.824;2023-05-09T12:21:03;28.90;42.50
66608;DHT22;53462;39.616;8.824;2023-05-09T12:23:33;28.90;44.10
66608;DHT22;53462;39.616;8.824;2023-05-09T12:26:00;28.80;43.70
66608;DHT22;53462;39.616;8.824;2023-05-09T12:28:26;28.80;43.90
66608;DHT22;53462;39.616;8.824;2023-05-09T12:30:53;28.80;43.40
66608;DHT22;53462;39.616;8.824;2023-05-09T12:33:19;28.90;43.30
66608;DHT22;53462;39.616;8.824;2023-05-09T12:35:46;28.90;43.80
66608;DHT22;53462;39.616;8.824;2023-05-09T12:38:19;28.80;43.10
66608;DHT22;53462;39.616;8.824;2023-05-09T12:40:59;28.60;41.90
66608;DHT22;53462;39.616;8.824;2023-05-09T12:43:25;28.50;43.90
66608;DHT22;53462;39.616;8.824;2023-05-09T12:45:54;28.30;44.20
66608;DHT22;53462;39.616;8.824;2023-05-09T12:48:21;28.40;45.00
66608;DHT22;53462;39.616;8.824;2023-05-09T12:50:48;28.30;44.50
66608;DHT22;53462;39.616;8.824;2023-05-09T12:53:25;28.20;44.60
66608;DHT22;53462;39.616;8.824;2023-05-09T12:56:18;28.10;46.10
66608;DHT22;53462;39.616;8.824;2023-05-09T12:58:52;28.20;45.10
66608;DHT22;53462;39.616;8.824;2023-05-09T13:01:20;28.20;44.90
66608;DHT22;53462;39.616;8.824;2023-05-09T13:04:00;28.20;45.00
66608;DHT22;53462;39.616;8.824;2023-05-09T13:06:26;28.10;44.90
66608;DHT22;53462;39.616;8.824;2023-05-09T13:08:59;27.90;45.10
66608;DHT22;53462;39.616;8.824;2023-05-09T13:11:26;27.90;46.00
66608;DHT22;53462;39.616;8.824;2023-05-09T13:13:54;28.00;45.30
66608;DHT22;53462;39.616;8.824;2023-05-09T13:16:20;28.00;45.00
66608;DHT22;53462;39.616;8.824;2023-05-09T13:18:46;27.80;45.40
66608;DHT22;53462;39.616;8.824;2023-05-09T13:21:12;27.50;45.30
66608;DHT22;53462;39.616;8.824;2023-05-09T13:23:38;27.40;44.90
66608;DHT22;53462;39.616;8.824;2023-05-09T13:26:04;27.20;45.00
66608;DHT22;53462;39.616;8.824;2023-05-09T13:28:30;27.00;46.10
66608;DHT22;53462;39.616;8.824;2023-05-09T13:30:56;27.00;46.90
66608;DHT22;53462;39.616;8.824;2023-05-09T13:33:21;27.10;46.30
66608;DHT22;53462;39.616;8.824;2023-05-09T13:35:47;27.30;46.50
66608;DHT22;53462;39.616;8.824;2023-05-09T13:38:13;27.10;45.60
66608;DHT22;53462;39.616;8.824;2023-05-09T13:40:39;27.20;45.60
66608;DHT22;53462;39.616;8.824;2023-05-09T13:43:05;27.10;44.90
66608;DHT22;53462;39.616;8.824;2023-05-09T13:45:31;26.90;43.60
66608;DHT22;53462;39.616;8.824;2023-05-09T13:47:57;26.70;45.40
66608;DHT22;53462;39.616;8.824;2023-05-09T13:50:23;26.70;45.80
66608;DHT22;53462;39.616;8.824;2023-05-09T13:52:49;26.80;44.80
66608;DHT22;53462;39.616;8.824;2023-05-09T13:55:14;26.40;43.90
66608;DHT22;53462;39.616;8.824;2023-05-09T13:57:42;26.30;44.90
66608;DHT22;53462;39.616;8.824;2023-05-09T14:00:08;26.50;44.90
66608;DHT22;53462;39.616;8.824;2023-05-09T14:02:38;26.20;44.70
66608;DHT22;53462;39.616;8.824;2023-05-09T14:05:04;26.20;44.80
66608;DHT22;53462;39.616;8.824;2023-05-09T14:07:30;26.10;44.60
66608;DHT22;53462;39.616;8.824;2023-05-09T14:09:57;26.00;43.90
66608;DHT22;53462;39.616;8.824;2023-05-09T14:12:24;26.20;42.80
66608;DHT22;53462;39.616;8.824;2023-05-09T14:14:50;26.10;42.90
66608;DHT22;53462;39.616;8.824;2023-05-09T14:17:16;25.90;43.60
66608;DHT22;53462;39.616;8.824;2023-05-09T14:19:42;26.00;45.70
66608;DHT22;53462;39.616;8.824;2023-05-09T14:22:08;26.00;46.10
66608;DHT22;53462;39.616;8.824;2023-05-09T14:24:34;26.00;46.70
66608;DHT22;53462;39.616;8.824;2023-05-09T14:27:00;25.90;47.90
66608;DHT22;53462;39.616;8.824;2023-05-09T14:29:27;25.70;47.30
66608;DHT22;53462;39.616;8.824;2023-05-09T14:31:53;25.80;46.40
66608;DHT22;53462;39.616;8.824;2023-05-09T14:34:19;25.60;46.60
66608;DHT22;53462;39.616;8.824;2023-05-09T14:36:45;25.50;46.90
66608;DHT22;53462;39.616;8.824;2023-05-09T14:39:11;25.70;46.50
66608;DHT22;53462;39.616;8.824;2023-05-09T14:41:37;25.50;44.70
66608;DHT22;53462;39.616;8.824;2023-05-09T14:44:03;25.40;46.00
66608;DHT22;53462;39.616;8.824;2023-05-09T14:46:29;25.30;46.60
66608;DHT22;53462;39.616;8.824;2023-05-09T14:48:55;25.40;46.80
66608;DHT22;53462;39.616;8.824;2023-05-09T14:51:26;25.30;46.50
66608;DHT22;53462;39.616;8.824;2023-05-09T14:53:53;25.20;46.20
66608;DHT22;53462;39.616;8.824;2023-05-09T14:56:19;25.00;49.20
66608;DHT22;53462;39.616;8.824;2023-05-09T14:58:45;25.10;50.60
66608;DHT22;53462;39.616;8.824;2023-05-09T15:01:11;24.90;49.30
66608;DHT22;53462;39.616;8.824;2023-05-09T15:03:37;24.70;49.80
66608;DHT22;53462;39.616;8.824;2023-05-09T15:06:04;24.70;49.80
66608;DHT22;53462;39.616;8.824;2023-05-09T15:08:30;24.60;47.70
66608;DHT22;53462;39.616;8.824;2023-05-09T15:10:56;24.40;47.50
66608;DHT22;53462;39.616;8.824;2023-05-09T15:13:22;24.60;48.70
66608;DHT22;53462;39.616;8.824;2023-05-09T15:15:48;24.60;48.20
66608;DHT22;53462;39.616;8.824;2023-05-09T15:18:14;24.60;48.60
66608;DHT22;53462;39.616;8.824;2023-05-09T15:20:42;24.60;48.00
66608;DHT22;53462;39.616;8.824;2023-05-09T15:23:07;24.50;48.60
66608;DHT22;53462;39.616;8.824;2023-05-09T15:25:33;24.70;49.20
66608;DHT22;53462;39.616;8.824;2023-05-09T15:28:00;24.50;49.10
66608;DHT22;53462;39.616;8.824;2023-05-09T15:30:26;24.40;50.00
66608;DHT22;53462;39.616;8.824;2023-05-09T15:32:52;24.50;50.00
66608;DHT22;53462;39.616;8.824;2023-05-09T15:35:18;24.60;49.80
66608;DHT22;53462;39.616;8.824;2023-05-09T15:37:44;24.50;48.50
66608;DHT22;53462;39.616;8.824;2023-05-09T15:40:10;24.40;47.90
66608;DHT22;53462;39.616;8.824;2023-05-09T15:42:37;24.30;48.80
66608;DHT22;53462;39.616;8.824;2023-05-09T15:45:04;24.10;48.70
66608;DHT22;53462;39.616;8.824;2023-05-09T15:47:31;24.00;48.90
66608;DHT22;53462;39.616;8.824;2023-05-09T15:49:56;23.90;49.50